createdAt,value
2019-01-12T00:01:37.225Z,34.43
2019-01-12T00:04:09.487Z,25.97
2019-01-12T00:06:41.987Z,30.93
2019-01-12T00:09:14.349Z,29.67
2019-01-12T00:11:46.588Z,24.70
2019-01-12T00:14:18.709Z,32.33
2019-01-12T00:16:50.859Z,17.47
2019-01-12T00:19:23.225Z,27.47
2019-01-12T00:21:56.362Z,28.20
2019-01-12T00:24:31.762Z,24.00
2019-01-12T00:27:02.699Z,26.80
2019-01-12T00:29:34.777Z,23.67
2019-01-12T00:32:06.917Z,28.57
2019-01-12T00:34:38.966Z,31.10
2019-01-12T00:37:11.233Z,34.80
2019-01-12T00:39:43.612Z,42.03
2019-01-12T00:42:15.748Z,31.37
2019-01-12T00:44:47.957Z,32.93
2019-01-12T00:47:20.427Z,29.60
2019-01-12T00:49:52.813Z,21.60
2019-01-12T00:52:25.146Z,25.00
2019-01-12T00:54:57.330Z,27.57
2019-01-12T00:57:29.506Z,23.80
2019-01-12T01:00:01.758Z,27.10
2019-01-12T01:02:33.874Z,25.20
2019-01-12T01:05:06.675Z,40.07
2019-01-12T01:07:38.896Z,26.80
2019-01-12T01:10:14.129Z,30.27
2019-01-12T01:12:46.234Z,32.10
2019-01-12T01:15:18.814Z,24.67
2019-01-12T01:17:51.025Z,34.37
2019-01-12T01:20:23.227Z,28.43
2019-01-12T01:22:55.712Z,29.07
2019-01-12T01:25:27.906Z,31.40
2019-01-12T01:28:00.095Z,12.90
2019-01-12T01:30:32.593Z,34.60
2019-01-12T01:33:04.982Z,23.33
2019-01-12T01:35:37.183Z,30.00
2019-01-12T01:38:09.314Z,20.77
2019-01-12T01:40:41.538Z,41.83
2019-01-12T01:43:13.887Z,38.80
2019-01-12T01:45:45.984Z,27.60
2019-01-12T01:48:18.281Z,31.90
2019-01-12T01:50:50.767Z,26.00
2019-01-12T01:53:22.880Z,32.97
2019-01-12T01:55:55.077Z,37.37
2019-01-12T01:58:27.561Z,27.23
2019-01-12T02:00:59.645Z,29.53
2019-01-12T02:03:31.670Z,29.23
2019-01-12T02:06:04.152Z,26.50
2019-01-12T02:08:36.249Z,22.67
2019-01-12T02:11:08.284Z,33.43
2019-01-12T02:13:40.439Z,34.13
2019-01-12T02:16:12.813Z,26.97
2019-01-12T02:18:44.920Z,32.90
2019-01-12T02:21:17.356Z,36.57
2019-01-12T02:23:49.388Z,33.43
2019-01-12T02:26:21.365Z,25.40
2019-01-12T02:28:53.580Z,17.50
2019-01-12T02:31:25.911Z,24.60
2019-01-12T02:33:58.143Z,32.47
2019-01-12T02:36:30.217Z,17.13
2019-01-12T02:39:04.126Z,35.87
2019-01-12T02:41:36.281Z,25.60
2019-01-12T02:44:08.753Z,35.43
2019-01-12T02:46:40.859Z,31.00
2019-01-12T02:49:13.144Z,29.57
2019-01-12T02:51:45.412Z,34.70
2019-01-12T02:54:17.820Z,25.13
2019-01-12T02:56:50.212Z,25.70
2019-01-12T02:59:22.421Z,25.03
2019-01-12T03:01:54.791Z,35.60
2019-01-12T03:04:26.919Z,32.17
2019-01-12T03:06:59.017Z,30.50
2019-01-12T03:09:31.196Z,28.77
2019-01-12T03:12:03.684Z,29.67
2019-01-12T03:14:35.793Z,32.17
2019-01-12T03:17:08.175Z,31.20
2019-01-12T03:19:40.820Z,27.90
2019-01-12T03:22:12.939Z,37.53
2019-01-12T03:24:45.105Z,28.27
2019-01-12T03:27:17.281Z,33.90
2019-01-12T03:29:49.414Z,20.97
2019-01-12T03:32:21.408Z,39.50
2019-01-12T03:34:53.785Z,25.27
2019-01-12T03:37:25.970Z,24.60
2019-01-12T03:39:58.012Z,30.13
2019-01-12T03:42:30.120Z,31.97
2019-01-12T03:45:02.765Z,42.03
2019-01-12T03:47:34.967Z,31.93
2019-01-12T03:50:08.560Z,33.00
2019-01-12T03:52:41.191Z,34.07
2019-01-12T03:55:13.389Z,28.40
2019-01-12T03:57:45.619Z,24.50
2019-01-12T04:00:19.697Z,25.40
2019-01-12T04:02:52.340Z,34.73
2019-01-12T04:05:24.527Z,28.13
2019-01-12T04:07:56.666Z,36.67
2019-01-12T04:10:29.179Z,27.30
2019-01-12T04:13:01.342Z,32.13
2019-01-12T04:15:33.420Z,46.57
2019-01-12T04:18:05.880Z,32.03
2019-01-12T04:20:38.048Z,32.30
2019-01-12T04:23:10.360Z,25.67
2019-01-12T04:25:42.420Z,29.10
2019-01-12T04:28:14.817Z,27.47
2019-01-12T04:30:47.076Z,30.37
2019-01-12T04:33:19.104Z,26.87
2019-01-12T04:35:51.373Z,35.30
2019-01-12T04:38:23.496Z,31.77
2019-01-12T04:40:55.477Z,30.40
2019-01-12T04:43:27.626Z,32.17
2019-01-12T04:46:00.263Z,43.23
2019-01-12T04:48:32.482Z,36.50
2019-01-12T04:51:04.950Z,32.33
2019-01-12T04:53:37.166Z,26.57
2019-01-12T04:56:09.661Z,28.73
2019-01-12T04:58:41.863Z,31.53
2019-01-12T05:01:13.973Z,29.47
2019-01-12T05:03:46.065Z,25.87
2019-01-12T05:06:18.040Z,24.07
2019-01-12T05:08:50.306Z,32.17
2019-01-12T05:11:22.356Z,35.53
2019-01-12T05:13:54.479Z,27.60
2019-01-12T05:16:26.598Z,33.10
2019-01-12T05:18:58.816Z,31.70
2019-01-12T05:21:30.977Z,26.73
2019-01-12T05:24:03.225Z,26.73
2019-01-12T05:26:35.717Z,27.13
2019-01-12T05:29:08.034Z,34.03
2019-01-12T05:31:40.020Z,28.83
2019-01-12T05:34:12.391Z,30.23
2019-01-12T05:36:44.630Z,29.63
2019-01-12T05:39:16.640Z,26.07
2019-01-12T05:41:49.178Z,23.37
2019-01-12T05:44:21.488Z,34.07
2019-01-12T05:46:53.901Z,32.70
2019-01-12T05:49:26.005Z,32.43
2019-01-12T05:51:58.232Z,25.13
2019-01-12T05:54:30.579Z,21.00
2019-01-12T05:57:02.825Z,26.13
2019-01-12T05:59:34.779Z,19.83
2019-01-12T06:02:06.985Z,28.03
2019-01-12T06:04:39.012Z,20.23
2019-01-12T06:07:11.260Z,23.23
2019-01-12T06:09:43.997Z,23.30
2019-01-12T06:12:16.217Z,25.70
2019-01-12T06:14:48.742Z,21.53
2019-01-12T06:17:21.315Z,27.87
2019-01-12T06:19:53.736Z,25.90
2019-01-12T06:22:25.730Z,24.97
2019-01-12T06:24:57.740Z,24.97
2019-01-12T06:27:29.840Z,23.63
2019-01-12T06:30:02.041Z,30.67
2019-01-12T06:32:34.144Z,27.37
2019-01-12T06:35:06.449Z,22.40
2019-01-12T06:37:38.686Z,16.57
2019-01-12T06:40:13.444Z,20.90
2019-01-12T06:42:46.098Z,26.20
2019-01-12T06:45:18.367Z,20.30
2019-01-12T06:47:50.561Z,23.33
2019-01-12T06:50:22.635Z,18.87
2019-01-12T06:52:54.911Z,17.67
2019-01-12T06:55:27.100Z,24.30
2019-01-12T06:57:59.126Z,15.73
2019-01-12T07:00:31.463Z,23.80
2019-01-12T07:03:04.044Z,24.10
2019-01-12T07:05:36.276Z,20.53
2019-01-12T07:08:08.324Z,24.93
2019-01-12T07:10:40.455Z,17.30
2019-01-12T07:13:12.913Z,20.73
2019-01-12T07:15:45.133Z,14.80
2019-01-12T07:18:17.607Z,17.13
2019-01-12T07:20:49.959Z,17.53
2019-01-12T07:23:22.225Z,24.57
2019-01-12T07:25:54.486Z,20.90
2019-01-12T07:28:26.633Z,20.63
2019-01-12T07:30:58.767Z,19.13
2019-01-12T07:33:30.901Z,15.27
2019-01-12T07:36:03.234Z,24.93
2019-01-12T07:38:35.451Z,21.57
2019-01-12T07:41:07.775Z,24.67
2019-01-12T07:43:40.037Z,19.60
2019-01-12T07:46:12.693Z,20.10
2019-01-12T07:48:44.821Z,22.20
2019-01-12T07:51:17.320Z,15.40
2019-01-12T07:53:49.707Z,21.93
2019-01-12T07:56:24.615Z,16.40
2019-01-12T07:58:55.781Z,14.23
2019-01-12T08:01:28.028Z,24.10
2019-01-12T08:04:00.290Z,20.03
2019-01-12T08:06:32.789Z,23.53
2019-01-12T08:09:08.498Z,16.83
2019-01-12T08:11:40.719Z,19.63
2019-01-12T08:14:13.261Z,22.33
2019-01-12T08:16:45.280Z,21.80
2019-01-12T08:19:17.538Z,20.80
2019-01-12T08:21:49.738Z,23.37
2019-01-12T08:24:22.513Z,25.70
2019-01-12T08:26:54.530Z,19.03
2019-01-12T08:29:26.900Z,20.97
2019-01-12T08:31:58.993Z,29.37
2019-01-12T08:34:31.504Z,22.00
2019-01-12T08:37:04.002Z,24.40
2019-01-12T08:39:36.141Z,21.70
2019-01-12T08:42:08.646Z,20.27
2019-01-12T08:44:40.909Z,24.70
2019-01-12T08:47:13.219Z,25.40
2019-01-12T08:49:45.361Z,23.37
2019-01-12T08:52:17.513Z,24.00
2019-01-12T08:54:49.974Z,24.10
2019-01-12T08:57:22.480Z,25.53
2019-01-12T08:59:54.584Z,19.33
2019-01-12T09:02:26.945Z,22.00
2019-01-12T09:04:59.021Z,15.53
2019-01-12T09:07:33.080Z,17.90
2019-01-12T09:10:07.923Z,22.57
2019-01-12T09:12:40.306Z,20.50
2019-01-12T09:15:12.517Z,17.30
2019-01-12T09:17:44.725Z,16.30
2019-01-12T09:20:17.140Z,17.13
2019-01-12T09:22:49.342Z,15.73
2019-01-12T09:25:21.979Z,22.50
2019-01-12T09:27:54.208Z,18.03
2019-01-12T09:30:26.432Z,22.50
2019-01-12T09:32:58.697Z,15.33
2019-01-12T09:35:30.809Z,15.50
2019-01-12T09:38:03.373Z,17.40
2019-01-12T09:40:35.468Z,15.33
2019-01-12T09:43:07.837Z,25.53
2019-01-12T09:45:40.067Z,19.30
2019-01-12T09:48:12.341Z,12.23
2019-01-12T09:50:44.441Z,14.50
2019-01-12T09:53:16.569Z,12.23
2019-01-12T09:55:48.571Z,13.93
2019-01-12T09:58:20.598Z,14.63
2019-01-12T10:00:52.813Z,9.00
2019-01-12T10:03:25.065Z,6.37
2019-01-12T10:05:57.274Z,10.13
2019-01-12T10:08:29.253Z,8.03
2019-01-12T10:11:01.724Z,8.83
2019-01-12T10:13:33.843Z,9.67
2019-01-12T10:16:06.017Z,6.97
2019-01-12T10:18:38.478Z,3.27
2019-01-12T10:21:10.706Z,6.77
2019-01-12T10:23:43.172Z,4.40
2019-01-12T10:26:15.371Z,7.43
2019-01-12T10:28:47.625Z,5.90
2019-01-12T10:31:19.883Z,4.13
2019-01-12T10:33:52.476Z,3.57
2019-01-12T10:36:24.587Z,3.33
2019-01-12T10:38:56.947Z,5.70
2019-01-12T10:41:29.098Z,2.33
2019-01-12T10:44:01.197Z,3.83
2019-01-12T10:46:33.488Z,2.77
2019-01-12T10:49:06.008Z,3.40
2019-01-12T10:51:38.109Z,7.67
2019-01-12T10:54:10.614Z,4.43
2019-01-12T10:56:43.357Z,2.00
2019-01-12T10:59:15.618Z,3.77
2019-01-12T11:01:48.036Z,5.30
2019-01-12T11:04:20.217Z,2.83
2019-01-12T11:06:52.561Z,2.40
2019-01-12T11:09:24.746Z,4.87
2019-01-12T11:11:57.292Z,3.57
2019-01-12T11:14:29.480Z,3.40
2019-01-12T11:17:01.897Z,2.40
2019-01-12T11:19:34.318Z,2.40
2019-01-12T11:22:06.821Z,5.90
2019-01-12T11:24:39.259Z,2.93
2019-01-12T11:27:12.752Z,3.47
2019-01-12T11:29:44.953Z,3.73
2019-01-12T11:32:17.620Z,5.07
2019-01-12T11:34:49.705Z,5.00
2019-01-12T11:37:21.943Z,6.10
2019-01-12T11:39:54.396Z,5.07
2019-01-12T11:42:26.872Z,5.20
2019-01-12T11:44:59.270Z,3.07
2019-01-12T11:47:31.340Z,6.83
2019-01-12T11:50:05.853Z,3.27
2019-01-12T11:52:38.049Z,3.73
2019-01-12T11:55:11.212Z,4.67
2019-01-12T11:57:43.502Z,3.13
2019-01-12T12:00:18.454Z,3.30
2019-01-12T12:02:50.920Z,3.37
2019-01-12T12:05:23.178Z,3.83
2019-01-12T12:07:56.351Z,3.63
2019-01-12T12:10:28.615Z,2.80
2019-01-12T12:13:01.021Z,3.10
2019-01-12T12:15:33.031Z,4.00
2019-01-12T12:18:05.557Z,4.27
2019-01-12T12:20:37.590Z,5.70
2019-01-12T12:23:10.040Z,3.70
2019-01-12T12:25:42.281Z,5.00
2019-01-12T12:28:14.737Z,2.20
2019-01-12T12:30:46.985Z,3.20
2019-01-12T12:33:19.145Z,3.47
2019-01-12T12:35:51.373Z,2.30
2019-01-12T12:38:23.898Z,3.17
2019-01-12T12:40:56.069Z,4.17
2019-01-12T12:43:28.502Z,4.20
2019-01-12T12:46:00.985Z,4.20
2019-01-12T12:48:33.084Z,3.00
2019-01-12T12:51:05.258Z,4.37
2019-01-12T12:53:37.764Z,2.70
2019-01-12T12:56:09.975Z,4.00
2019-01-12T12:58:42.117Z,5.40
2019-01-12T13:01:14.636Z,3.67
2019-01-12T13:03:46.885Z,4.07
2019-01-12T13:06:19.006Z,3.50
2019-01-12T13:08:51.192Z,3.40
2019-01-12T13:11:23.560Z,4.63
2019-01-12T13:13:55.894Z,3.60
2019-01-12T13:16:28.012Z,3.77
2019-01-12T13:19:00.491Z,4.53
2019-01-12T13:21:32.979Z,5.20
2019-01-12T13:24:05.240Z,6.07
2019-01-12T13:26:37.351Z,4.90
2019-01-12T13:29:09.526Z,3.33
2019-01-12T13:31:41.743Z,4.73
2019-01-12T13:34:14.208Z,4.50
2019-01-12T13:36:46.682Z,3.40
2019-01-12T13:39:19.065Z,4.90
2019-01-12T13:41:51.240Z,5.40
2019-01-12T13:44:23.577Z,5.27
2019-01-12T13:46:55.745Z,5.87
2019-01-12T13:49:27.986Z,4.13
2019-01-12T13:52:00.454Z,5.67
2019-01-12T13:54:32.831Z,4.83
2019-01-12T13:57:04.997Z,5.53
2019-01-12T13:59:37.095Z,2.20
2019-01-12T14:02:09.420Z,5.53
2019-01-12T14:04:41.769Z,5.90
2019-01-12T14:07:14.128Z,5.87
2019-01-12T14:09:46.383Z,6.27
2019-01-12T14:12:18.588Z,6.17
2019-01-12T14:14:50.835Z,5.87
2019-01-12T14:17:23.047Z,4.63
2019-01-12T14:19:55.714Z,3.60
2019-01-12T14:22:28.085Z,4.90
2019-01-12T14:25:00.318Z,4.53
2019-01-12T14:27:32.517Z,4.17
2019-01-12T14:30:07.111Z,3.50
2019-01-12T14:32:39.629Z,5.00
2019-01-12T14:35:12.271Z,5.90
2019-01-12T14:37:44.657Z,4.93
2019-01-12T14:40:17.713Z,5.23
2019-01-12T14:42:49.810Z,5.27
2019-01-12T14:45:25.552Z,6.23
2019-01-12T14:47:57.785Z,4.77
2019-01-12T14:50:30.284Z,4.73
2019-01-12T14:53:02.885Z,6.20
2019-01-12T14:55:35.280Z,6.37
2019-01-12T14:58:07.708Z,6.93
2019-01-12T15:00:40.009Z,6.03
2019-01-12T15:03:12.054Z,6.40
2019-01-12T15:05:44.539Z,5.90
2019-01-12T15:08:16.800Z,6.07
2019-01-12T15:10:48.937Z,7.17
2019-01-12T15:13:21.140Z,6.07
2019-01-12T15:15:53.384Z,6.47
2019-01-12T15:18:25.613Z,5.77
2019-01-12T15:20:57.709Z,6.17
2019-01-12T15:23:29.699Z,5.67
2019-01-12T15:26:02.080Z,6.80
2019-01-12T15:28:34.302Z,4.93
2019-01-12T15:31:06.476Z,4.53
2019-01-12T15:33:38.557Z,7.37
2019-01-12T15:36:10.874Z,6.00
2019-01-12T15:38:43.075Z,6.17
2019-01-12T15:41:15.502Z,5.40
2019-01-12T15:43:47.584Z,9.67
2019-01-12T15:46:20.055Z,6.00
2019-01-12T15:48:52.247Z,5.53
2019-01-12T15:51:24.372Z,6.47
2019-01-12T15:53:56.542Z,8.07
2019-01-12T15:56:28.518Z,6.17
2019-01-12T15:59:00.876Z,5.57
2019-01-12T16:01:33.104Z,6.00
2019-01-12T16:04:05.374Z,6.17
2019-01-12T16:06:37.526Z,6.53
2019-01-12T16:09:09.712Z,5.67
2019-01-12T16:11:42.083Z,7.37
2019-01-12T16:14:14.205Z,6.40
2019-01-12T16:16:46.648Z,7.23
2019-01-12T16:19:19.007Z,6.43
2019-01-12T16:21:51.232Z,5.63
2019-01-12T16:24:23.757Z,7.17
2019-01-12T16:26:55.977Z,5.93
2019-01-12T16:29:28.013Z,4.87
2019-01-12T16:32:00.200Z,8.30
2019-01-12T16:34:32.750Z,8.17
2019-01-12T16:37:05.199Z,8.73
2019-01-12T16:39:37.228Z,9.57
2019-01-12T16:42:09.622Z,8.00
2019-01-12T16:44:41.854Z,8.60
2019-01-12T16:47:15.381Z,7.87
2019-01-12T16:49:47.636Z,7.63
2019-01-12T16:52:19.775Z,6.87
2019-01-12T16:54:51.782Z,4.63
2019-01-12T16:57:24.006Z,7.67
2019-01-12T16:59:57.678Z,8.37
2019-01-12T17:02:29.944Z,7.73
2019-01-12T17:05:02.285Z,10.90
2019-01-12T17:07:34.625Z,8.30
2019-01-12T17:10:10.063Z,8.47
2019-01-12T17:12:42.286Z,6.37
2019-01-12T17:15:16.465Z,8.43
2019-01-12T17:17:48.699Z,7.80
2019-01-12T17:20:23.131Z,6.70
2019-01-12T17:22:57.959Z,5.63
2019-01-12T17:25:30.225Z,9.10
2019-01-12T17:28:02.813Z,10.10
2019-01-12T17:30:34.968Z,7.70
2019-01-12T17:33:07.509Z,6.73
2019-01-12T17:35:39.764Z,11.43
2019-01-12T17:38:12.272Z,7.70
2019-01-12T17:40:44.600Z,7.47
2019-01-12T17:43:16.761Z,7.57
2019-01-12T17:45:48.937Z,9.43
2019-01-12T17:48:21.421Z,9.73
2019-01-12T17:50:53.584Z,9.53
2019-01-12T17:53:25.923Z,9.47
2019-01-12T17:55:58.215Z,10.77
2019-01-12T17:58:30.321Z,8.97
2019-01-12T18:01:02.846Z,9.30
2019-01-12T18:03:35.272Z,10.63
2019-01-12T18:06:07.491Z,5.13
2019-01-12T18:08:39.701Z,9.10
2019-01-12T18:11:12.184Z,9.30
2019-01-12T18:13:44.344Z,11.53
2019-01-12T18:16:16.449Z,9.30
2019-01-12T18:18:48.700Z,9.93
2019-01-12T18:21:20.940Z,8.77
2019-01-12T18:23:53.669Z,9.57
2019-01-12T18:26:26.014Z,9.20
2019-01-12T18:28:58.464Z,10.53
2019-01-12T18:31:31.396Z,8.50
2019-01-12T18:34:03.674Z,9.20
2019-01-12T18:36:35.784Z,9.43
2019-01-12T18:39:08.311Z,9.40
2019-01-12T18:41:41.261Z,11.43
2019-01-12T18:44:13.261Z,9.27
2019-01-12T18:46:45.385Z,9.17
2019-01-12T18:49:17.959Z,9.67
2019-01-12T18:51:50.260Z,9.33
2019-01-12T18:54:23.028Z,11.07
2019-01-12T18:56:55.620Z,10.53
2019-01-12T18:59:27.876Z,7.37
2019-01-12T19:02:00.299Z,9.30
2019-01-12T19:04:32.417Z,9.17
2019-01-12T19:07:04.866Z,10.67
2019-01-12T19:09:38.369Z,7.97
2019-01-12T19:12:10.726Z,8.67
2019-01-12T19:14:43.012Z,10.93
2019-01-12T19:17:15.243Z,11.30
2019-01-12T19:19:47.330Z,9.87
2019-01-12T19:22:19.540Z,9.10
2019-01-12T19:24:51.978Z,10.33
2019-01-12T19:27:24.202Z,12.77
2019-01-12T19:29:56.441Z,9.63
2019-01-12T19:32:28.648Z,11.20
2019-01-12T19:35:00.868Z,9.83
2019-01-12T19:37:33.037Z,11.00
2019-01-12T19:40:08.844Z,9.07
2019-01-12T19:42:41.188Z,10.80
2019-01-12T19:45:14.201Z,9.90
2019-01-12T19:47:46.882Z,10.00
2019-01-12T19:50:21.352Z,11.47
2019-01-12T19:52:53.910Z,7.97
2019-01-12T19:55:26.003Z,10.17
2019-01-12T19:57:58.085Z,10.50
2019-01-12T20:00:32.068Z,6.13
2019-01-12T20:03:04.371Z,6.87
2019-01-12T20:05:36.474Z,8.87
2019-01-12T20:08:08.560Z,7.13
2019-01-12T20:10:40.798Z,5.20
2019-01-12T20:13:13.100Z,8.07
2019-01-12T20:15:45.530Z,9.97
2019-01-12T20:18:17.628Z,6.80
2019-01-12T20:20:49.646Z,9.07
2019-01-12T20:23:21.756Z,5.73
2019-01-12T20:25:53.886Z,6.90
2019-01-12T20:28:25.889Z,12.13
2019-01-12T20:31:48.938Z,10.13
2019-01-12T20:34:40.795Z,11.07
2019-01-12T20:37:55.906Z,5.23
2019-01-12T20:41:16.378Z,7.67
2019-01-12T20:44:42.441Z,9.23
2019-01-12T20:47:34.725Z,8.50
2019-01-12T20:51:07.149Z,7.93
2019-01-12T20:54:12.405Z,6.67
2019-01-12T20:57:22.409Z,8.83
2019-01-12T21:00:17.993Z,9.60
2019-01-12T21:03:25.180Z,13.43
2019-01-12T21:06:38.404Z,8.60
2019-01-12T21:09:42.331Z,7.13
2019-01-12T21:12:43.289Z,5.83
2019-01-12T21:15:26.261Z,9.97
2019-01-12T21:17:58.831Z,8.23
2019-01-12T21:20:30.957Z,6.17
2019-01-12T21:23:03.400Z,6.37
2019-01-12T21:25:35.631Z,8.10
2019-01-12T21:28:07.615Z,5.37
2019-01-12T21:30:39.870Z,4.50
2019-01-12T21:33:12.345Z,7.27
2019-01-12T21:35:45.085Z,7.13
2019-01-12T21:38:17.185Z,6.97
2019-01-12T21:40:49.302Z,4.73
2019-01-12T21:43:21.520Z,6.07
2019-01-12T21:45:53.645Z,7.30
2019-01-12T21:48:25.825Z,5.63
2019-01-12T21:50:58.363Z,4.67
2019-01-12T21:53:30.584Z,6.50
2019-01-12T21:56:02.835Z,9.87
2019-01-12T21:58:35.069Z,6.53
2019-01-12T22:01:07.299Z,6.83
2019-01-12T22:03:39.483Z,8.00
2019-01-12T22:06:11.876Z,6.03
2019-01-12T22:08:44.004Z,3.47
2019-01-12T22:11:16.208Z,5.33
2019-01-12T22:13:48.507Z,3.43
2019-01-12T22:16:20.739Z,6.43
2019-01-12T22:18:52.728Z,6.77
2019-01-12T22:21:26.035Z,5.43
2019-01-12T22:23:58.278Z,6.93
2019-01-12T22:26:30.375Z,6.10
2019-01-12T22:29:02.977Z,7.43
2019-01-12T22:31:35.097Z,5.20
2019-01-12T22:34:07.226Z,6.47
2019-01-12T22:36:39.627Z,4.33
2019-01-12T22:39:11.694Z,10.10
2019-01-12T22:41:44.239Z,7.93
2019-01-12T22:44:16.333Z,4.60
2019-01-12T22:46:48.646Z,5.23
2019-01-12T22:49:20.639Z,11.43
2019-01-12T22:51:53.034Z,6.43
2019-01-12T22:54:25.118Z,5.87
2019-01-12T22:56:57.135Z,7.10
2019-01-12T22:59:29.233Z,7.53
2019-01-12T23:02:04.250Z,6.00
2019-01-12T23:04:36.349Z,4.43
2019-01-12T23:07:11.638Z,9.77
2019-01-12T23:09:42.560Z,7.57
2019-01-12T23:12:15.122Z,5.77
2019-01-12T23:14:47.229Z,5.60
2019-01-12T23:17:19.542Z,8.77
2019-01-12T23:19:51.637Z,6.63
2019-01-12T23:22:24.173Z,4.53
2019-01-12T23:24:56.940Z,4.60
2019-01-12T23:27:29.064Z,5.67
2019-01-12T23:30:04.726Z,5.17
2019-01-12T23:32:35.433Z,7.73
2019-01-12T23:35:07.847Z,6.60
2019-01-12T23:37:40.529Z,9.37
2019-01-12T23:40:12.697Z,7.30
2019-01-12T23:42:44.992Z,4.23
2019-01-12T23:45:17.063Z,7.10
2019-01-12T23:47:49.196Z,5.10
2019-01-12T23:50:21.372Z,9.07
2019-01-12T23:52:53.386Z,6.10
2019-01-12T23:55:25.646Z,6.20
2019-01-12T23:57:58.025Z,6.30
